Time;durP1;ratioP1;P1;durP2;ratioP2;P2;SDS_P1;SDS_P2;PMS_P1;PMS_P2;Temp;Humidity;BMP_temperature;BMP_pressure;BME280_temperature;BME280_humidity;BME280_pressure;Samples;Min_cycle;Max_cycle;Signal;HPM_P1;HPM_P2
2021/10/04 00:01:34;;;;;;;3.13;1.92;;;;;;;14.07;72.88;101033.72;10466207;28;20500;-82
2021/10/04 00:06:34;;;;;;;2.35;1.63;;;;;;;14.01;72.84;101009.22;10468739;28;20099;-82
2021/10/04 00:11:35;;;;;;;6.45;1.70;;;;;;;13.90;73.40;101010.75;10470476;28;20029;-82
2021/10/04 00:16:36;;;;;;;3.95;1.65;;;;;;;14.25;71.93;101045.78;10469896;28;20033;-82
2021/10/04 00:21:36;;;;;;;4.97;1.80;;;;;;;14.19;71.75;101036.59;10467517;28;20079;-83
2021/10/04 00:26:37;;;;;;;4.32;1.88;;;;;;;13.89;73.30;101001.78;10466881;28;20049;-82
2021/10/04 00:31:37;;;;;;;1.33;1.23;;;;;;;13.57;72.72;100951.88;10451473;28;20040;-82
2021/10/04 00:36:37;;;;;;;1.15;0.95;;;;;;;14.23;72.05;101084.16;10473850;28;20044;-82
2021/10/04 00:41:38;;;;;;;1.35;1.27;;;;;;;14.12;73.03;101077.47;10473319;28;20033;-82
2021/10/04 00:46:38;;;;;;;7.95;1.85;;;;;;;13.69;72.04;101015.47;10473052;28;20073;-82
2021/10/04 00:51:39;;;;;;;3.90;1.52;;;;;;;13.89;72.82;101048.03;10453232;28;20032;-82
2021/10/04 00:56:39;;;;;;;4.10;1.95;;;;;;;14.05;72.63;101076.66;10454026;28;20033;-82
2021/10/04 01:01:39;;;;;;;6.80;1.80;;;;;;;14.38;71.49;101078.38;10454278;28;20044;-82
2021/10/04 01:06:40;;;;;;;12.77;2.05;;;;;;;14.34;72.27;101090.78;10453983;28;20040;-82
2021/10/04 01:11:40;;;;;;;4.45;1.30;;;;;;;14.07;72.66;101063.69;10470093;28;20044;-82
2021/10/04 01:16:41;;;;;;;6.68;2.15;;;;;;;13.99;72.88;101076.72;10453626;28;20488;-82
2021/10/04 01:21:41;;;;;;;2.75;1.70;;;;;;;14.18;72.02;101097.56;10469273;28;20068;-82
2021/10/04 01:26:42;;;;;;;7.10;1.90;;;;;;;14.28;71.60;101119.72;10468176;28;20041;-82
2021/10/04 01:31:42;;;;;;;3.90;1.70;;;;;;;14.25;71.47;101119.31;10466713;28;20040;-82
2021/10/04 01:36:43;;;;;;;4.63;1.20;;;;;;;13.70;72.01;101055.22;10466001;28;20056;-82
2021/10/04 01:41:43;;;;;;;1.92;1.65;;;;;;;13.83;71.59;101092.47;10463191;28;20071;-82
2021/10/04 01:46:44;;;;;;;4.32;1.42;;;;;;;14.23;71.79;101137.75;10445068;28;20049;-82
2021/10/04 01:51:44;;;;;;;4.88;1.63;;;;;;;14.08;72.67;101138.88;10445695;28;20072;-82
2021/10/04 01:56:45;;;;;;;2.35;1.35;;;;;;;14.09;72.45;101129.66;10461638;28;20025;-81
2021/10/04 02:01:45;;;;;;;5.03;2.28;;;;;;;14.18;72.38;101130.25;10461325;28;20083;-82
2021/10/04 02:06:49;;;;;;;8.10;1.70;;;;;;;14.06;72.32;101111.00;10465837;28;20032;-82
2021/10/04 02:11:50;;;;;;;5.35;1.95;;;;;;;13.78;72.92;101091.41;10473030;28;20063;-82
2021/10/04 02:16:50;;;;;;;5.90;1.38;;;;;;;13.97;72.72;101120.47;10454223;28;20443;-82
2021/10/04 02:21:51;;;;;;;2.60;1.65;;;;;;;13.97;72.53;101074.19;10469505;28;20060;-82
2021/10/04 02:26:51;;;;;;;6.10;1.30;;;;;;;14.14;72.57;101107.22;10470518;28;20067;-82
2021/10/04 02:31:51;;;;;;;1.92;1.17;;;;;;;14.21;72.80;101099.03;10467165;28;20037;-82
2021/10/04 02:36:52;;;;;;;3.45;1.58;;;;;;;14.28;71.79;101097.94;10468518;28;20032;-82
2021/10/04 02:41:52;;;;;;;3.45;2.17;;;;;;;14.24;71.78;101099.44;10468834;28;20045;-82
2021/10/04 02:46:53;;;;;;;3.80;1.92;;;;;;;13.23;71.58;100959.28;10468747;28;20049;-82
2021/10/04 02:51:53;;;;;;;1.70;1.60;;;;;;;13.95;71.62;101081.75;10451386;28;20037;-82
2021/10/04 02:56:54;;;;;;;1.48;1.38;;;;;;;13.72;71.65;101036.81;10465542;28;20040;-82
2021/10/04 03:01:54;;;;;;;6.00;1.52;;;;;;;13.69;72.32;101082.69;10467365;28;20041;-82
2021/10/04 03:06:55;;;;;;;1.85;1.75;;;;;;;13.86;72.00;101085.75;10450916;28;20032;-82
2021/10/04 03:11:55;;;;;;;3.38;2.00;;;;;;;13.94;72.48;101113.59;10452719;28;20033;-82
2021/10/04 03:16:56;;;;;;;2.38;1.35;;;;;;;13.58;71.78;101037.91;10471212;28;20120;-82
2021/10/04 03:21:56;;;;;;;8.75;1.90;;;;;;;13.83;72.62;101084.28;10472692;28;20045;-82
2021/10/04 03:26:57;;;;;;;4.15;1.98;;;;;;;13.53;72.61;101043.16;10467395;28;20056;-82
2021/10/04 03:31:57;;;;;;;3.13;1.92;;;;;;;13.94;72.01;101110.00;10466278;28;20078;-82
2021/10/04 03:36:59;;;;;;;2.38;1.13;;;;;;;13.79;71.94;101120.34;10448791;28;20063;-82
2021/10/04 03:41:59;;;;;;;5.05;2.00;;;;;;;13.69;71.67;101116.16;10468306;28;20063;-82
2021/10/04 03:47:00;;;;;;;3.55;2.10;;;;;;;13.73;72.21;101125.56;10449373;28;20136;-82
2021/10/04 03:52:01;;;;;;;5.15;1.83;;;;;;;13.79;71.93;101140.22;10467770;28;20049;-82
2021/10/04 03:57:02;;;;;;;4.15;1.42;;;;;;;13.67;70.87;101152.81;10461037;28;20094;-82
2021/10/04 04:02:02;;;;;;;6.63;1.95;;;;;;;13.48;70.67;101109.06;10460231;28;20060;-82
2021/10/04 04:07:03;;;;;;;1.45;1.35;;;;;;;13.68;71.05;101154.47;10463040;28;20040;-82
2021/10/04 04:12:03;;;;;;;1.88;1.55;;;;;;;13.42;71.11;101122.69;10470679;28;20040;-82
2021/10/04 04:17:04;;;;;;;7.55;1.73;;;;;;;13.43;71.57;101135.22;10468997;28;20033;-81
2021/10/04 04:22:04;;;;;;;2.47;2.05;;;;;;;13.52;70.70;101153.00;10471246;28;20052;-82
2021/10/04 04:27:06;;;;;;;6.03;2.30;;;;;;;13.47;71.02;101148.22;10470550;28;20044;-83
2021/10/04 04:32:09;;;;;;;8.05;2.25;;;;;;;12.16;70.21;100965.00;10454085;28;20409;-83
2021/10/04 04:37:10;;;;;;;1.15;1.10;;;;;;;13.29;71.13;101174.38;10466534;28;20037;-82
2021/10/04 04:42:10;;;;;;;2.85;1.95;;;;;;;13.16;71.15;101151.53;10416380;28;81295;-81
2021/10/04 04:47:11;;;;;;;3.40;2.50;;;;;;;13.19;70.95;101169.31;10488969;28;20045;-83
2021/10/04 04:52:11;;;;;;;2.22;2.05;;;;;;;12.81;71.15;101161.72;10505081;28;20037;-83
2021/10/04 04:57:19;;;;;;;10.88;2.22;;;;;;;13.10;71.41;101192.31;10505675;28;20032;-82
2021/10/04 05:02:20;;;;;;;6.05;2.17;;;;;;;13.02;71.26;101204.25;10507090;28;20132;-83
2021/10/04 05:07:20;;;;;;;7.78;2.55;;;;;;;13.04;71.12;101197.53;10506074;28;20039;-82
2021/10/04 05:12:21;;;;;;;10.10;1.95;;;;;;;13.02;70.83;101198.81;10507222;28;20040;-82
2021/10/04 05:17:21;;;;;;;6.18;3.15;;;;;;;13.07;71.22;101207.16;10502709;28;20032;-82
2021/10/04 05:22:21;;;;;;;3.13;1.83;;;;;;;12.60;70.59;101154.56;10502266;28;20551;-82
2021/10/04 05:27:22;;;;;;;1.42;1.42;;;;;;;12.60;70.68;101154.56;10499809;28;20040;-82
2021/10/04 05:32:22;;;;;;;3.03;2.28;;;;;;;12.32;71.29;101138.41;10502911;28;20025;-82
2021/10/04 05:37:23;;;;;;;7.07;2.33;;;;;;;12.91;71.08;101226.56;10485005;28;20028;-82
2021/10/04 05:42:24;;;;;;;14.15;3.42;;;;;;;12.72;71.92;101247.19;10502123;28;20068;-82
2021/10/04 05:47:24;;;;;;;6.10;2.95;;;;;;;12.61;71.83;101228.78;10501092;28;20044;-82
2021/10/04 05:52:25;;;;;;;1.88;1.77;;;;;;;12.68;71.49;101235.06;10501124;28;20036;-82
2021/10/04 05:57:25;;;;;;;7.97;2.58;;;;;;;11.97;72.64;101164.75;10482533;28;20035;-82
2021/10/04 06:02:26;;;;;;;4.20;2.33;;;;;;;12.59;72.82;101268.88;10483197;28;20064;-82
2021/10/04 06:07:26;;;;;;;9.93;2.47;;;;;;;12.50;73.72;101260.06;10505813;28;20082;-82
2021/10/04 06:12:27;;;;;;;8.95;3.25;;;;;;;12.19;74.25;101242.38;10501996;28;20134;-82
2021/10/04 06:17:27;;;;;;;3.88;2.20;;;;;;;12.14;73.34;101200.56;10502413;28;20531;-82
2021/10/04 06:22:27;;;;;;;5.85;2.83;;;;;;;12.21;74.87;101242.16;10501684;28;20025;-82
2021/10/04 06:27:28;;;;;;;4.45;2.55;;;;;;;12.30;74.69;101271.66;10500566;28;20086;-82
2021/10/04 06:32:28;;;;;;;4.25;2.78;;;;;;;12.26;74.72;101253.25;10482652;28;20082;-82
2021/10/04 06:37:29;;;;;;;4.93;2.70;;;;;;;11.85;73.98;101162.59;10500004;28;20518;-82
2021/10/04 06:42:29;;;;;;;5.88;3.22;;;;;;;12.75;75.62;101284.84;10500690;28;20041;-82
2021/10/04 06:47:29;;;;;;;5.50;3.17;;;;;;;14.08;73.20;101269.59;10500341;28;20506;-82
2021/10/04 06:52:30;;;;;;;7.50;2.85;;;;;;;14.76;71.19;101292.91;10500434;28;20115;-82
2021/10/04 06:57:30;;;;;;;8.93;3.28;;;;;;;15.20;69.95;101272.16;10499798;28;20395;-82
2021/10/04 07:02:31;;;;;;;6.47;2.40;;;;;;;15.70;68.41;101300.41;10500780;28;20040;-82
2021/10/04 07:07:31;;;;;;;10.00;2.85;;;;;;;15.69;67.58;101303.34;10500482;28;20032;-82
2021/10/04 07:12:31;;;;;;;4.85;2.50;;;;;;;15.94;67.14;101306.06;10499213;28;20036;-82
2021/10/04 07:17:32;;;;;;;8.00;2.72;;;;;;;15.99;67.17;101287.97;10498856;28;20032;-81
2021/10/04 07:22:32;;;;;;;2.83;2.35;;;;;;;16.18;66.72;101285.28;10498514;28;20396;-82
2021/10/04 07:27:33;;;;;;;4.10;2.83;;;;;;;16.31;64.91;101274.22;10498241;28;20464;-81
2021/10/04 07:32:33;;;;;;;7.78;3.05;;;;;;;16.62;65.20;101314.22;10498294;28;20132;-81
2021/10/04 07:37:34;;;;;;;4.90;3.00;;;;;;;16.71;68.08;101318.31;10496685;28;20047;-81
2021/10/04 07:42:35;;;;;;;14.73;2.58;;;;;;;17.08;64.21;101320.25;10497580;28;20036;-81
2021/10/04 07:47:36;;;;;;;2.53;2.20;;;;;;;17.65;64.05;101317.97;10504783;28;20053;-81
2021/10/04 07:52:37;;;;;;;3.60;2.53;;;;;;;17.40;65.76;101320.84;10489361;28;20040;-81
2021/10/04 07:57:37;;;;;;;3.70;1.95;;;;;;;17.42;61.31;101308.63;10488920;28;20040;-81
2021/10/04 08:02:38;;;;;;;4.20;2.55;;;;;;;17.61;61.83;101303.03;10489415;28;20463;-81
2021/10/04 08:07:38;;;;;;;3.72;2.50;;;;;;;17.33;63.08;101325.59;10507367;28;20067;-81
2021/10/04 08:12:39;;;;;;;2.47;2.28;;;;;;;17.19;62.37;101234.63;10506355;28;20036;-81
2021/10/04 08:17:39;;;;;;;5.40;2.53;;;;;;;17.96;61.59;101307.78;10488394;28;20032;-81
2021/10/04 08:22:40;;;;;;;8.65;2.50;;;;;;;18.01;60.52;101229.28;10488842;28;20025;-81
2021/10/04 08:27:46;;;;;;;4.97;2.45;;;;;;;18.56;61.64;101335.81;10505627;28;20036;-80
2021/10/04 08:32:47;;;;;;;3.97;2.40;;;;;;;18.33;60.15;101331.16;10487743;28;20042;-80
2021/10/04 08:37:48;;;;;;;2.78;2.08;;;;;;;17.50;61.98;101191.59;10504885;28;20123;-81
2021/10/04 08:42:49;;;;;;;2.33;1.83;;;;;;;18.50;58.25;101336.75;10505468;28;20044;-81
2021/10/04 08:47:51;;;;;;;1.98;1.58;;;;;;;18.96;64.30;101326.00;10500329;28;20049;-81
2021/10/04 08:52:51;;;;;;;2.92;2.65;;;;;;;18.71;57.92;101285.09;10484716;28;20090;-81
2021/10/04 08:57:52;;;;;;;3.38;2.20;;;;;;;19.38;58.21;101270.78;10501228;28;20121;-81
2021/10/04 09:03:02;;;;;;;3.70;2.65;;;;;;;19.61;58.76;101339.34;10501717;28;20039;-81
2021/10/04 09:08:07;;;;;;;5.60;2.00;;;;;;;19.71;57.75;101336.78;10501954;28;20029;-81
2021/10/04 09:13:09;;;;;;;3.97;2.75;;;;;;;19.94;61.08;101327.59;10484110;28;20031;-81
2021/10/04 09:18:15;;;;;;;3.92;2.40;;;;;;;20.28;60.72;101334.97;10483256;28;20025;-81
2021/10/04 09:23:27;;;;;;;3.05;2.28;;;;;;;18.81;60.39;101341.06;10501231;28;20454;-80
2021/10/04 09:28:31;;;;;;;6.53;3.00;;;;;;;18.18;62.77;101294.34;10501256;28;20099;-80
2021/10/04 09:33:31;;;;;;;7.80;3.13;;;;;;;18.01;61.58;101335.34;10483776;28;20135;-80
2021/10/04 09:38:32;;;;;;;4.82;2.40;;;;;;;18.46;59.74;101296.34;10483437;28;20131;-80
2021/10/04 09:43:32;;;;;;;8.68;2.92;;;;;;;19.10;60.76;101319.13;10466115;28;20468;-81
2021/10/04 09:48:32;;;;;;;2.85;1.73;;;;;;;19.27;60.87;101342.00;10460417;28;1134627;-80
2021/10/04 09:53:33;;;;;;;6.00;2.13;;;;;;;18.96;60.27;101354.28;10468711;28;20037;-81
2021/10/04 09:58:33;;;;;;;8.60;2.95;;;;;;;19.90;57.44;101309.91;10502554;28;20469;-81
2021/10/04 10:03:42;;;;;;;4.80;2.47;;;;;;;20.64;57.18;101369.38;10502913;28;20127;-80
2021/10/04 10:08:42;;;;;;;13.98;3.20;;;;;;;21.62;56.02;101366.75;10501164;28;20053;-81
2021/10/04 10:13:43;;;;;;;10.35;2.65;;;;;;;21.21;52.72;101381.97;10499883;28;20539;-82
2021/10/04 10:19:00;;;;;;;5.95;2.22;;;;;;;20.65;53.94;101366.38;10500092;28;20119;-81
2021/10/04 10:24:04;;;;;;;2.80;2.15;;;;;;;21.26;60.72;101369.09;10466166;28;20465;-81
2021/10/04 10:29:17;;;;;;;5.30;1.98;;;;;;;22.77;56.60;101363.53;10481240;28;20096;-79
2021/10/04 10:34:29;;;;;;;8.30;3.88;;;;;;;22.76;51.12;101364.66;10499172;28;20035;-79
2021/10/04 10:40:19;;;;;;;5.38;2.20;;;;;;;22.57;55.22;101350.47;10499154;28;20111;-79
2021/10/04 10:45:20;;;;;;;9.32;3.30;;;;;;;22.06;54.72;101355.59;10493551;28;20040;-80
2021/10/04 10:50:41;;;;;;;15.30;2.95;;;;;;;20.17;53.86;101350.50;10500677;28;20456;-81
2021/10/04 10:55:42;;;;;;;7.03;2.83;;;;;;;20.93;55.88;101355.44;10469141;28;20052;-82
2021/10/04 11:00:50;;;;;;;11.25;2.63;;;;;;;21.70;58.09;101358.03;10481768;28;20032;-78
2021/10/04 11:05:57;;;;;;;9.75;2.35;;;;;;;22.21;55.24;101343.88;10483652;28;20028;-80
2021/10/04 11:10:57;;;;;;;6.75;2.25;;;;;;;22.60;55.99;101354.63;10499331;28;20372;-80
2021/10/04 11:16:01;;;;;;;10.95;2.95;;;;;;;22.85;55.23;101349.25;10499340;28;20033;-80
2021/10/04 11:21:03;;;;;;;7.03;3.53;;;;;;;22.70;56.80;101347.22;10481814;28;20032;-80
2021/10/04 11:26:03;;;;;;;2.63;1.98;;;;;;;21.64;53.13;101342.53;10499951;28;20318;-79
2021/10/04 11:31:05;;;;;;;13.52;2.10;;;;;;;22.12;56.25;101342.69;10498670;28;20024;-79
2021/10/04 11:36:08;;;;;;;3.55;1.63;;;;;;;20.45;57.81;101278.00;10481022;28;20044;-80
2021/10/04 11:41:09;;;;;;;11.32;3.40;;;;;;;20.64;58.25;101328.94;10481198;28;20029;-80
2021/10/04 11:46:17;;;;;;;4.85;2.05;;;;;;;20.49;57.74;101317.69;10481302;28;20059;-79
2021/10/04 11:51:26;;;;;;;4.43;1.80;;;;;;;19.97;58.44;101307.00;10498754;28;20380;-79
2021/10/04 11:56:27;;;;;;;11.77;2.42;;;;;;;20.19;60.16;101338.13;10499355;28;20439;-79
2021/10/04 12:01:32;;;;;;;2.42;1.80;;;;;;;20.68;54.73;101340.28;10480191;28;20135;-80
2021/10/04 12:06:33;;;;;;;10.82;1.95;;;;;;;20.13;56.81;101330.06;10498672;28;20059;-79
2021/10/04 12:11:33;;;;;;;9.57;2.67;;;;;;;19.57;56.47;101230.19;10480588;28;20051;-79
2021/10/04 12:16:34;;;;;;;3.05;2.00;;;;;;;19.59;59.00;101322.28;10498055;28;20039;-79
2021/10/04 12:21:41;;;;;;;2.88;2.33;;;;;;;18.99;59.65;101323.59;10479951;28;20094;-79
2021/10/04 12:26:45;;;;;;;3.60;1.95;;;;;;;19.42;60.99;101335.13;10495922;28;20043;-79
2021/10/04 12:31:45;;;;;;;8.65;2.38;;;;;;;19.88;60.98;101301.09;10502118;28;20036;-79
2021/10/04 12:36:46;;;;;;;2.78;2.03;;;;;;;19.52;61.32;101300.44;10487137;28;20036;-79
2021/10/04 12:41:50;;;;;;;4.75;1.65;;;;;;;19.13;60.26;101244.53;10504975;28;20563;-78
2021/10/04 12:47:12;;;;;;;5.88;2.42;;;;;;;19.82;59.21;101299.34;10486638;28;20049;-79
2021/10/04 12:52:20;;;;;;;2.15;1.42;;;;;;;19.78;57.83;101303.66;10503976;28;20506;-80
2021/10/04 12:57:28;;;;;;;3.75;1.48;;;;;;;20.08;60.48;101313.50;10502788;28;20494;-79
2021/10/04 13:02:28;;;;;;;11.85;1.90;;;;;;;20.06;56.71;101304.66;10486293;28;20426;-79
2021/10/04 13:07:31;;;;;;;4.47;2.28;;;;;;;20.36;56.99;101301.56;10503568;28;20082;-79
2021/10/04 13:12:31;;;;;;;11.18;2.50;;;;;;;20.15;56.08;101297.66;10502729;28;20480;-79
2021/10/04 13:17:32;;;;;;;5.40;2.78;;;;;;;20.70;56.30;101301.47;10501772;28;20029;-79
2021/10/04 13:22:32;;;;;;;3.25;1.83;;;;;;;20.80;54.24;101293.34;10485093;28;20041;-79
2021/10/04 13:27:33;;;;;;;2.03;1.73;;;;;;;20.23;54.18;101305.50;10500793;28;20044;-80
2021/10/04 13:32:33;;;;;;;3.03;1.77;;;;;;;19.81;57.53;101296.84;10485345;28;20060;-80
2021/10/04 13:37:34;;;;;;;0.85;0.85;;;;;;;20.00;58.73;101235.00;10502045;28;20112;-79
2021/10/04 13:42:39;;;;;;;2.10;1.38;;;;;;;20.69;56.57;101264.06;10499960;28;20123;-79
2021/10/04 13:47:39;;;;;;;2.65;1.20;;;;;;;21.03;54.72;101295.84;10502169;28;20167;-80
2021/10/04 13:52:40;;;;;;;5.43;1.33;;;;;;;20.18;54.38;101302.66;10467783;28;20043;-79
2021/10/04 13:57:40;;;;;;;3.65;1.45;;;;;;;20.39;56.40;101307.38;10501479;28;20040;-79
2021/10/04 14:02:41;;;;;;;5.80;1.85;;;;;;;20.15;54.50;101282.00;10502215;28;20045;-79
2021/10/04 14:07:41;;;;;;;20.55;2.15;;;;;;;20.12;54.80;101309.16;10484091;28;20533;-79
2021/10/04 14:12:42;;;;;;;4.60;1.73;;;;;;;20.10;54.71;101306.69;10483176;28;20086;-80
2021/10/04 14:17:42;;;;;;;5.03;1.70;;;;;;;20.30;57.84;101291.56;10483476;28;20063;-80
2021/10/04 14:22:46;;;;;;;12.30;1.45;;;;;;;20.17;57.44;101295.50;10501003;28;20120;-78
2021/10/04 14:27:47;;;;;;;5.28;1.80;;;;;;;19.39;58.46;101277.94;10499737;28;20029;-80
2021/10/04 14:32:48;;;;;;;3.70;1.90;;;;;;;19.84;56.98;101310.91;10482490;28;20028;-79
2021/10/04 14:37:50;;;;;;;6.47;2.28;;;;;;;19.54;57.09;101297.44;10499271;28;20472;-78
2021/10/04 14:42:51;;;;;;;2.03;0.90;;;;;;;19.02;59.50;101295.66;10499063;28;20028;-78
2021/10/04 14:47:51;;;;;;;10.05;1.75;;;;;;;19.84;58.23;101302.66;10498568;28;20052;-78
2021/10/04 14:52:52;;;;;;;3.30;1.52;;;;;;;19.87;58.85;101301.34;10480641;28;20086;-80
2021/10/04 14:57:52;;;;;;;13.77;2.20;;;;;;;19.13;58.09;101274.72;10463284;28;20043;-79
2021/10/04 15:02:52;;;;;;;10.10;1.80;;;;;;;19.19;58.95;101273.75;10497932;28;20043;-79
2021/10/04 15:07:53;;;;;;;4.35;1.67;;;;;;;19.42;61.62;101271.97;10498250;28;20116;-79
2021/10/04 15:12:53;;;;;;;5.80;1.40;;;;;;;19.11;58.12;101273.28;10497787;28;20032;-79
2021/10/04 15:17:54;;;;;;;2.38;1.80;;;;;;;19.04;58.98;101296.22;10479660;28;20483;-79
2021/10/04 15:22:54;;;;;;;3.00;1.10;;;;;;;18.67;56.71;101281.19;10498081;28;20051;-79
2021/10/04 15:27:54;;;;;;;6.57;1.67;;;;;;;18.55;59.15;101309.47;10496463;28;20072;-79
2021/10/04 15:32:55;;;;;;;6.97;2.33;;;;;;;18.60;59.68;101303.25;10480155;28;20047;-79
2021/10/04 15:37:55;;;;;;;4.38;1.15;;;;;;;18.25;61.91;101314.25;10481036;28;20056;-79
2021/10/04 15:42:56;;;;;;;5.28;1.58;;;;;;;17.78;63.50;101295.03;10498525;28;20043;-79
2021/10/04 15:47:56;;;;;;;5.40;2.05;;;;;;;17.92;62.12;101285.50;10479132;28;20496;-79
2021/10/04 15:52:57;;;;;;;8.88;2.38;;;;;;;17.30;62.78;101252.16;10479077;28;20032;-80
2021/10/04 15:57:57;;;;;;;4.85;1.38;;;;;;;17.61;63.28;101251.88;10497015;28;20115;-79
2021/10/04 16:02:58;;;;;;;5.70;1.42;;;;;;;17.10;62.84;101266.97;10496967;28;20469;-80
2021/10/04 16:08:03;;;;;;;10.52;2.17;;;;;;;17.57;63.86;101286.25;10502871;28;20037;-80
2021/10/04 16:13:03;;;;;;;5.88;2.10;;;;;;;17.64;63.94;101292.50;10488036;28;20040;-80
2021/10/04 16:18:03;;;;;;;4.68;1.63;;;;;;;17.26;62.23;101298.31;10505313;28;20431;-79
2021/10/04 16:23:04;;;;;;;6.53;2.22;;;;;;;17.39;64.11;101306.34;10486983;28;20067;-80
2021/10/04 16:28:06;;;;;;;10.52;2.53;;;;;;;17.37;62.89;101289.31;10503487;28;20041;-80
2021/10/04 16:33:06;;;;;;;4.28;1.77;;;;;;;17.22;64.41;101319.00;10487248;28;20400;-79
2021/10/04 16:38:07;;;;;;;2.53;1.73;;;;;;;16.82;64.06;101303.09;10487233;28;20032;-79
2021/10/04 16:43:07;;;;;;;2.85;1.88;;;;;;;17.07;63.97;101313.09;10504401;28;20447;-79
2021/10/04 16:48:07;;;;;;;1.15;1.08;;;;;;;16.99;63.72;101303.31;10503267;28;20067;-79
2021/10/04 16:53:08;;;;;;;1.23;0.90;;;;;;;16.95;63.92;101307.56;10487157;28;20432;-79
2021/10/04 16:58:08;;;;;;;3.33;1.42;;;;;;;16.86;63.67;101307.03;10503187;28;20075;-79
2021/10/04 17:03:09;;;;;;;1.85;1.02;;;;;;;16.67;62.86;101314.38;10502743;28;20036;-79
2021/10/04 17:08:11;;;;;;;1.60;1.50;;;;;;;16.71;62.44;101322.97;10502693;28;20040;-79
2021/10/04 17:13:12;;;;;;;5.38;1.45;;;;;;;16.88;62.93;101317.75;10503755;28;20448;-79
2021/10/04 17:18:12;;;;;;;3.25;1.55;;;;;;;16.01;63.61;101231.19;10502296;28;20115;-79
2021/10/04 17:23:12;;;;;;;10.85;1.95;;;;;;;16.59;63.63;101322.03;10484330;28;20059;-79
2021/10/04 17:28:13;;;;;;;1.70;1.38;;;;;;;16.77;63.21;101324.00;10501214;28;20385;-79
2021/10/04 17:33:13;;;;;;;7.50;1.75;;;;;;;16.53;63.63;101304.69;10501615;28;20033;-79
2021/10/04 17:38:14;;;;;;;1.35;1.23;;;;;;;16.15;64.71;101300.22;10483599;28;20119;-79
2021/10/04 17:43:14;;;;;;;3.65;1.48;;;;;;;16.40;64.10;101322.06;10501514;28;20072;-79
2021/10/04 17:48:15;;;;;;;2.00;1.08;;;;;;;16.49;64.56;101309.72;10501011;28;20075;-79
2021/10/04 17:53:18;;;;;;;2.42;1.63;;;;;;;15.95;64.48;101237.59;10483159;28;20510;-79
2021/10/04 17:58:18;;;;;;;3.80;1.48;;;;;;;16.35;65.00;101269.94;10500799;28;20041;-79
2021/10/04 18:03:19;;;;;;;8.35;1.88;;;;;;;16.50;63.82;101319.63;10501748;28;20075;-79
2021/10/04 18:08:20;;;;;;;13.45;2.58;;;;;;;16.58;63.96;101287.56;10482745;28;20098;-79
2021/10/04 18:13:20;;;;;;;14.07;2.22;;;;;;;16.63;63.74;101293.22;10500099;28;20476;-79
2021/10/04 18:18:21;;;;;;;6.03;1.92;;;;;;;16.31;65.29;101287.03;10500648;28;20028;-79
2021/10/04 18:23:21;;;;;;;3.83;1.95;;;;;;;16.36;66.02;101282.53;10499659;28;20369;-79
2021/10/04 18:28:23;;;;;;;3.60;1.67;;;;;;;16.54;64.60;101295.41;10499058;28;20068;-79
2021/10/04 18:33:23;;;;;;;4.88;1.92;;;;;;;16.12;65.02;101226.91;10499798;28;20048;-79
2021/10/04 18:38:24;;;;;;;1.95;1.33;;;;;;;16.29;65.09;101259.94;10481154;28;20480;-79
2021/10/04 18:43:24;;;;;;;7.90;2.33;;;;;;;16.61;63.93;101296.16;10499038;28;20036;-79
2021/10/04 18:48:24;;;;;;;4.13;2.53;;;;;;;16.51;64.66;101291.22;10461861;28;20067;-79
2021/10/04 18:53:26;;;;;;;1.42;1.33;;;;;;;16.03;65.23;101259.13;10480825;28;20370;-79
2021/10/04 18:58:26;;;;;;;2.35;1.90;;;;;;;16.15;64.52;101272.06;10497650;28;20033;-79
2021/10/04 19:03:26;;;;;;;3.33;1.63;;;;;;;16.11;64.98;101240.78;10498276;28;20037;-79
2021/10/04 19:08:27;;;;;;;3.00;1.30;;;;;;;16.25;64.61;101275.13;10498158;28;20090;-79
2021/10/04 19:13:27;;;;;;;3.95;1.33;;;;;;;16.32;63.99;101259.47;10480238;28;20488;-79
2021/10/04 19:18:28;;;;;;;3.25;1.33;;;;;;;16.29;64.34;101259.94;10480160;28;20496;-79
2021/10/04 19:23:28;;;;;;;4.22;1.48;;;;;;;15.94;64.73;101249.56;10497682;28;20043;-79
2021/10/04 19:28:29;;;;;;;4.43;1.67;;;;;;;15.81;64.25;101239.59;10462684;28;20389;-79
2021/10/04 19:33:29;;;;;;;4.75;1.67;;;;;;;15.95;64.35;101292.22;10497977;28;20089;-78
2021/10/04 19:38:29;;;;;;;3.58;2.00;;;;;;;15.92;65.68;101278.16;10497930;28;20060;-79
2021/10/04 19:43:30;;;;;;;6.80;1.85;;;;;;;15.92;64.64;101268.09;10488115;28;20128;-80
2021/10/04 19:48:31;;;;;;;3.25;1.52;;;;;;;15.70;64.42;101275.00;10505472;28;20052;-79
2021/10/04 19:58:49;;;;;;;6.07;1.93;;;;;;;15.63;64.71;101257.78;10447584;28;20103;-80
2021/10/04 20:03:50;;;;;;;13.60;2.15;;;;;;;15.50;65.14;101256.81;10485810;28;20032;-79
2021/10/04 20:08:50;;;;;;;3.55;2.25;;;;;;;15.28;65.86;101240.00;10487063;28;20040;-81
2021/10/04 20:13:51;;;;;;;2.10;1.95;;;;;;;15.18;65.76;101198.69;10504107;28;20132;-82
2021/10/04 20:18:51;;;;;;;3.45;2.33;;;;;;;14.94;66.29;101210.41;10504786;28;20460;-82
2021/10/04 20:23:56;;;;;;;4.78;2.47;;;;;;;14.79;66.65;101184.25;10470579;28;20119;-81
2021/10/04 20:28:57;;;;;;;6.50;2.67;;;;;;;15.32;65.64;101241.22;10486727;28;20561;-81
2021/10/04 20:33:57;;;;;;;5.32;2.55;;;;;;;15.08;66.51;101242.81;10504700;28;20036;-81
2021/10/04 20:38:58;;;;;;;7.15;2.20;;;;;;;14.67;65.61;101166.09;10502505;28;20182;-82
2021/10/04 20:43:58;;;;;;;5.85;1.98;;;;;;;14.64;66.61;101184.56;10503677;28;20537;-81
2021/10/04 20:48:59;;;;;;;3.08;1.60;;;;;;;14.81;67.49;101249.50;10503301;28;20053;-82
2021/10/04 20:54:00;;;;;;;7.88;2.72;;;;;;;14.87;67.80;101241.28;10503651;28;20028;-82
2021/10/04 20:59:00;;;;;;;9.23;2.00;;;;;;;14.65;67.70;101238.03;10503347;28;20494;-81
2021/10/04 21:04:00;;;;;;;4.65;2.05;;;;;;;14.95;66.93;101232.00;10504266;28;20521;-82
2021/10/04 21:09:01;;;;;;;10.63;2.60;;;;;;;14.97;67.47;101219.00;10504745;28;20044;-81
2021/10/04 21:14:01;;;;;;;3.75;1.77;;;;;;;15.04;65.67;101159.78;10486192;28;20063;-82
2021/10/04 21:19:02;;;;;;;4.35;1.85;;;;;;;14.97;65.72;101175.34;10502595;28;20070;-80
2021/10/04 21:24:02;;;;;;;2.78;1.90;;;;;;;14.93;65.64;101155.03;10502325;28;20492;-81
2021/10/04 21:29:03;;;;;;;8.35;2.20;;;;;;;14.93;65.05;101114.13;10501547;28;20107;-82
2021/10/04 21:34:03;;;;;;;1.75;1.30;;;;;;;14.98;65.46;101155.19;10502761;28;20086;-81
2021/10/04 21:39:04;;;;;;;1.83;1.73;;;;;;;14.90;66.65;101185.47;10502011;28;20133;-81
2021/10/04 21:44:04;;;;;;;4.85;1.98;;;;;;;14.85;66.80;101160.75;10483920;28;20062;-81
2021/10/04 21:49:05;;;;;;;5.45;2.33;;;;;;;15.04;66.54;101192.50;10458835;28;20049;-81
2021/10/04 21:54:05;;;;;;;9.45;2.42;;;;;;;14.53;67.00;101119.00;10459934;28;20478;-81
2021/10/04 21:59:17;;;;;;;11.02;3.35;;;;;;;15.15;66.43;101203.75;10458126;28;20033;-82
2021/10/04 22:14:55;;;;;;;9.50;2.05;;;;;;;15.39;66.16;101164.75;10459067;28;20041;-82
2021/10/04 22:19:55;;;;;;;6.57;2.25;;;;;;;15.63;66.05;101154.88;10458879;28;20532;-81
2021/10/04 22:24:56;;;;;;;3.15;2.00;;;;;;;15.67;66.37;101158.03;10440901;28;20041;-81
2021/10/04 22:29:56;;;;;;;8.40;2.22;;;;;;;15.65;65.94;101158.22;10440322;28;20196;-82
2021/10/04 22:34:57;;;;;;;6.63;1.92;;;;;;;15.57;65.86;101161.22;10458432;28;20048;-81
2021/10/04 22:39:57;;;;;;;1.80;1.40;;;;;;;15.37;66.30;101111.47;10440659;28;20516;-81
2021/10/04 22:44:57;;;;;;;2.88;1.58;;;;;;;15.39;66.42;101118.38;10465576;28;20143;-81
2021/10/04 22:49:58;;;;;;;5.40;2.03;;;;;;;15.37;67.04;101116.91;10500182;28;20403;-81
2021/10/04 22:54:58;;;;;;;1.60;1.50;;;;;;;15.58;65.65;101111.06;10499994;28;20036;-81
2021/10/04 22:59:59;;;;;;;5.57;2.17;;;;;;;15.52;66.09;101101.84;10498245;28;20067;-81
2021/10/04 23:04:59;;;;;;;10.90;2.15;;;;;;;15.77;65.93;101109.19;10499102;28;20032;-81
2021/10/04 23:09:59;;;;;;;2.17;1.95;;;;;;;15.46;67.22;101096.47;10499146;28;20067;-80
2021/10/04 23:15:00;;;;;;;3.70;2.13;;;;;;;15.55;65.69;101063.19;10480471;28;20036;-82
2021/10/04 23:20:00;;;;;;;7.82;2.95;;;;;;;15.37;65.84;101038.63;10498178;28;20039;-81